sensor_id;sensor_type;location;lat;lon;timestamp;P1;durP1;ratioP1;P2;durP2;ratioP2
70899;SDS011;67902;52.154;5.430;2023-04-01T00:01:04;21.40;;;5.88;;
70899;SDS011;67902;52.154;5.430;2023-04-01T00:03:32;19.90;;;6.60;;
70899;SDS011;67902;52.154;5.430;2023-04-01T00:06:00;16.58;;;6.15;;
70899;SDS011;67902;52.154;5.430;2023-04-01T00:08:27;21.33;;;6.38;;
70899;SDS011;67902;52.154;5.430;2023-04-01T00:10:54;17.05;;;5.88;;
70899;SDS011;67902;52.154;5.430;2023-04-01T00:13:23;19.38;;;5.55;;
70899;SDS011;67902;52.154;5.430;2023-04-01T00:15:52;14.60;;;6.00;;
70899;SDS011;67902;52.154;5.430;2023-04-01T00:18:21;21.63;;;5.45;;
70899;SDS011;67902;52.154;5.430;2023-04-01T00:20:49;25.27;;;5.78;;
70899;SDS011;67902;52.154;5.430;2023-04-01T00:23:17;15.48;;;6.05;;
70899;SDS011;67902;52.154;5.430;2023-04-01T00:25:44;19.25;;;6.07;;
70899;SDS011;67902;52.154;5.430;2023-04-01T00:28:13;21.30;;;5.40;;
70899;SDS011;67902;52.154;5.430;2023-04-01T00:30:41;17.45;;;5.28;;
70899;SDS011;67902;52.154;5.430;2023-04-01T00:33:08;26.83;;;5.93;;
70899;SDS011;67902;52.154;5.430;2023-04-01T00:35:35;20.63;;;6.35;;
70899;SDS011;67902;52.154;5.430;2023-04-01T00:38:02;20.92;;;6.28;;
70899;SDS011;67902;52.154;5.430;2023-04-01T00:42:55;28.85;;;6.60;;
70899;SDS011;67902;52.154;5.430;2023-04-01T00:45:27;20.45;;;5.70;;
70899;SDS011;67902;52.154;5.430;2023-04-01T00:47:56;19.50;;;5.40;;
70899;SDS011;67902;52.154;5.430;2023-04-01T00:50:27;20.85;;;5.47;;
70899;SDS011;67902;52.154;5.430;2023-04-01T00:52:55;23.63;;;6.10;;
70899;SDS011;67902;52.154;5.430;2023-04-01T00:55:23;28.42;;;5.38;;
70899;SDS011;67902;52.154;5.430;2023-04-01T00:57:53;20.73;;;5.13;;
70899;SDS011;67902;52.154;5.430;2023-04-01T01:00:23;23.30;;;4.40;;
70899;SDS011;67902;52.154;5.430;2023-04-01T01:02:49;16.40;;;4.38;;
70899;SDS011;67902;52.154;5.430;2023-04-01T01:05:17;15.20;;;5.03;;
70899;SDS011;67902;52.154;5.430;2023-04-01T01:08:00;16.00;;;4.85;;
70899;SDS011;67902;52.154;5.430;2023-04-01T01:10:35;16.25;;;4.68;;
70899;SDS011;67902;52.154;5.430;2023-04-01T01:13:23;17.95;;;4.93;;
70899;SDS011;67902;52.154;5.430;2023-04-01T01:16:01;15.52;;;4.57;;
70899;SDS011;67902;52.154;5.430;2023-04-01T01:37:34;20.33;;;6.47;;
70899;SDS011;67902;52.154;5.430;2023-04-01T01:40:04;18.42;;;6.28;;
70899;SDS011;67902;52.154;5.430;2023-04-01T01:42:34;20.42;;;7.18;;
70899;SDS011;67902;52.154;5.430;2023-04-01T01:45:05;18.30;;;5.60;;
70899;SDS011;67902;52.154;5.430;2023-04-01T01:47:33;16.70;;;5.03;;
70899;SDS011;67902;52.154;5.430;2023-04-01T01:50:02;10.80;;;3.80;;
70899;SDS011;67902;52.154;5.430;2023-04-01T01:52:30;8.20;;;2.88;;
70899;SDS011;67902;52.154;5.430;2023-04-01T01:54:57;9.70;;;3.50;;
70899;SDS011;67902;52.154;5.430;2023-04-01T01:57:25;13.48;;;3.75;;
70899;SDS011;67902;52.154;5.430;2023-04-01T01:59:56;15.43;;;4.22;;
70899;SDS011;67902;52.154;5.430;2023-04-01T02:02:34;10.80;;;3.33;;
70899;SDS011;67902;52.154;5.430;2023-04-01T02:05:00;8.98;;;3.13;;
70899;SDS011;67902;52.154;5.430;2023-04-01T02:07:30;8.05;;;2.83;;
70899;SDS011;67902;52.154;5.430;2023-04-01T02:09:59;8.48;;;2.40;;
70899;SDS011;67902;52.154;5.430;2023-04-01T02:12:26;7.97;;;2.50;;
70899;SDS011;67902;52.154;5.430;2023-04-01T02:14:59;8.18;;;2.53;;
70899;SDS011;67902;52.154;5.430;2023-04-01T02:17:32;9.40;;;2.50;;
70899;SDS011;67902;52.154;5.430;2023-04-01T02:20:01;9.38;;;2.95;;
70899;SDS011;67902;52.154;5.430;2023-04-01T02:22:33;10.25;;;3.03;;
70899;SDS011;67902;52.154;5.430;2023-04-01T02:25:09;7.93;;;2.80;;
70899;SDS011;67902;52.154;5.430;2023-04-01T02:27:38;9.48;;;2.63;;
70899;SDS011;67902;52.154;5.430;2023-04-01T02:32:33;8.15;;;2.60;;
70899;SDS011;67902;52.154;5.430;2023-04-01T02:35:05;6.32;;;2.30;;
70899;SDS011;67902;52.154;5.430;2023-04-01T02:37:33;8.75;;;2.42;;
70899;SDS011;67902;52.154;5.430;2023-04-01T02:40:03;7.85;;;2.58;;
70899;SDS011;67902;52.154;5.430;2023-04-01T02:42:33;9.48;;;2.63;;
70899;SDS011;67902;52.154;5.430;2023-04-01T02:45:00;8.20;;;2.42;;
70899;SDS011;67902;52.154;5.430;2023-04-01T02:47:27;8.80;;;2.85;;
70899;SDS011;67902;52.154;5.430;2023-04-01T02:49:54;8.90;;;2.63;;
70899;SDS011;67902;52.154;5.430;2023-04-01T02:52:24;12.13;;;3.05;;
70899;SDS011;67902;52.154;5.430;2023-04-01T02:54:51;9.00;;;2.58;;
70899;SDS011;67902;52.154;5.430;2023-04-01T02:57:18;7.57;;;2.60;;
70899;SDS011;67902;52.154;5.430;2023-04-01T02:59:45;7.68;;;2.67;;
70899;SDS011;67902;52.154;5.430;2023-04-01T03:02:11;9.27;;;2.60;;
70899;SDS011;67902;52.154;5.430;2023-04-01T03:04:38;9.40;;;3.00;;
70899;SDS011;67902;52.154;5.430;2023-04-01T03:07:04;9.10;;;2.55;;
70899;SDS011;67902;52.154;5.430;2023-04-01T03:09:31;7.60;;;2.45;;
70899;SDS011;67902;52.154;5.430;2023-04-01T03:11:57;6.88;;;2.40;;
70899;SDS011;67902;52.154;5.430;2023-04-01T03:14:24;9.20;;;2.45;;
70899;SDS011;67902;52.154;5.430;2023-04-01T03:16:50;5.88;;;2.22;;
70899;SDS011;67902;52.154;5.430;2023-04-01T03:19:17;6.43;;;1.92;;
70899;SDS011;67902;52.154;5.430;2023-04-01T03:21:43;7.13;;;2.25;;
70899;SDS011;67902;52.154;5.430;2023-04-01T03:24:10;5.25;;;1.75;;
70899;SDS011;67902;52.154;5.430;2023-04-01T03:26:36;5.43;;;1.98;;
70899;SDS011;67902;52.154;5.430;2023-04-01T03:29:03;6.22;;;2.25;;
70899;SDS011;67902;52.154;5.430;2023-04-01T03:31:29;8.77;;;2.47;;
70899;SDS011;67902;52.154;5.430;2023-04-01T03:33:56;7.72;;;2.88;;
70899;SDS011;67902;52.154;5.430;2023-04-01T03:36:22;10.90;;;3.20;;
70899;SDS011;67902;52.154;5.430;2023-04-01T03:38:49;8.40;;;3.03;;
70899;SDS011;67902;52.154;5.430;2023-04-01T03:41:16;10.38;;;3.58;;
70899;SDS011;67902;52.154;5.430;2023-04-01T03:43:43;10.05;;;3.95;;
70899;SDS011;67902;52.154;5.430;2023-04-01T03:46:10;10.98;;;4.00;;
70899;SDS011;67902;52.154;5.430;2023-04-01T03:48:37;13.38;;;4.85;;
70899;SDS011;67902;52.154;5.430;2023-04-01T03:51:07;12.32;;;5.30;;
70899;SDS011;67902;52.154;5.430;2023-04-01T03:53:34;11.48;;;4.85;;
70899;SDS011;67902;52.154;5.430;2023-04-01T03:56:04;19.67;;;5.60;;
70899;SDS011;67902;52.154;5.430;2023-04-01T03:58:31;14.05;;;5.43;;
70899;SDS011;67902;52.154;5.430;2023-04-01T04:00:57;15.52;;;6.03;;
70899;SDS011;67902;52.154;5.430;2023-04-01T04:03:24;14.80;;;6.30;;
70899;SDS011;67902;52.154;5.430;2023-04-01T04:05:50;15.95;;;6.35;;
70899;SDS011;67902;52.154;5.430;2023-04-01T04:08:17;19.65;;;6.80;;
70899;SDS011;67902;52.154;5.430;2023-04-01T04:10:44;16.33;;;6.03;;
70899;SDS011;67902;52.154;5.430;2023-04-01T04:13:10;15.63;;;6.20;;
70899;SDS011;67902;52.154;5.430;2023-04-01T04:15:37;17.20;;;5.95;;
70899;SDS011;67902;52.154;5.430;2023-04-01T04:18:04;18.90;;;6.15;;
70899;SDS011;67902;52.154;5.430;2023-04-01T04:20:31;15.50;;;5.88;;
70899;SDS011;67902;52.154;5.430;2023-04-01T04:22:57;18.35;;;6.10;;
70899;SDS011;67902;52.154;5.430;2023-04-01T04:25:24;17.42;;;6.43;;
70899;SDS011;67902;52.154;5.430;2023-04-01T04:27:50;15.77;;;6.22;;
70899;SDS011;67902;52.154;5.430;2023-04-01T04:30:16;17.42;;;6.20;;
70899;SDS011;67902;52.154;5.430;2023-04-01T04:32:43;17.63;;;6.45;;
70899;SDS011;67902;52.154;5.430;2023-04-01T04:35:09;18.20;;;5.80;;
70899;SDS011;67902;52.154;5.430;2023-04-01T04:37:36;16.95;;;5.93;;
70899;SDS011;67902;52.154;5.430;2023-04-01T04:40:02;14.77;;;5.57;;
70899;SDS011;67902;52.154;5.430;2023-04-01T04:42:29;15.15;;;5.07;;
70899;SDS011;67902;52.154;5.430;2023-04-01T04:44:55;12.38;;;4.55;;
70899;SDS011;67902;52.154;5.430;2023-04-01T04:47:22;13.48;;;5.43;;
70899;SDS011;67902;52.154;5.430;2023-04-01T04:49:49;14.93;;;4.70;;
70899;SDS011;67902;52.154;5.430;2023-04-01T04:52:15;11.40;;;4.18;;
70899;SDS011;67902;52.154;5.430;2023-04-01T04:54:42;10.85;;;4.05;;
70899;SDS011;67902;52.154;5.430;2023-04-01T04:57:08;11.25;;;4.72;;
70899;SDS011;67902;52.154;5.430;2023-04-01T04:59:34;11.57;;;4.55;;
70899;SDS011;67902;52.154;5.430;2023-04-01T05:02:01;13.30;;;4.25;;
70899;SDS011;67902;52.154;5.430;2023-04-01T05:04:27;10.82;;;3.92;;
70899;SDS011;67902;52.154;5.430;2023-04-01T05:06:54;12.27;;;3.58;;
70899;SDS011;67902;52.154;5.430;2023-04-01T05:09:21;12.98;;;3.90;;
70899;SDS011;67902;52.154;5.430;2023-04-01T05:11:47;10.85;;;3.33;;
70899;SDS011;67902;52.154;5.430;2023-04-01T05:14:14;9.98;;;3.20;;
70899;SDS011;67902;52.154;5.430;2023-04-01T05:16:42;10.77;;;3.60;;
70899;SDS011;67902;52.154;5.430;2023-04-01T05:19:08;10.00;;;3.65;;
70899;SDS011;67902;52.154;5.430;2023-04-01T05:21:35;11.82;;;3.78;;
70899;SDS011;67902;52.154;5.430;2023-04-01T05:24:01;11.50;;;3.85;;
70899;SDS011;67902;52.154;5.430;2023-04-01T05:26:28;10.50;;;3.85;;
70899;SDS011;67902;52.154;5.430;2023-04-01T05:28:54;10.77;;;4.00;;
70899;SDS011;67902;52.154;5.430;2023-04-01T05:31:20;11.77;;;4.25;;
70899;SDS011;67902;52.154;5.430;2023-04-01T05:33:47;15.18;;;4.80;;
70899;SDS011;67902;52.154;5.430;2023-04-01T05:36:14;11.60;;;4.50;;
70899;SDS011;67902;52.154;5.430;2023-04-01T05:38:42;12.63;;;4.43;;
70899;SDS011;67902;52.154;5.430;2023-04-01T05:41:09;9.77;;;3.63;;
70899;SDS011;67902;52.154;5.430;2023-04-01T05:43:36;11.57;;;4.50;;
70899;SDS011;67902;52.154;5.430;2023-04-01T05:48:30;9.65;;;3.30;;
70899;SDS011;67902;52.154;5.430;2023-04-01T05:50:59;9.05;;;3.67;;
70899;SDS011;67902;52.154;5.430;2023-04-01T05:53:25;9.15;;;3.30;;
70899;SDS011;67902;52.154;5.430;2023-04-01T05:55:51;9.40;;;2.80;;
70899;SDS011;67902;52.154;5.430;2023-04-01T05:58:18;8.98;;;2.90;;
70899;SDS011;67902;52.154;5.430;2023-04-01T06:00:44;8.68;;;2.80;;
70899;SDS011;67902;52.154;5.430;2023-04-01T06:03:12;8.18;;;2.65;;
70899;SDS011;67902;52.154;5.430;2023-04-01T06:05:40;7.13;;;2.45;;
70899;SDS011;67902;52.154;5.430;2023-04-01T06:08:12;8.05;;;2.70;;
70899;SDS011;67902;52.154;5.430;2023-04-01T06:13:21;9.05;;;3.03;;
70899;SDS011;67902;52.154;5.430;2023-04-01T06:18:40;9.38;;;3.33;;
70899;SDS011;67902;52.154;5.430;2023-04-01T06:21:23;8.32;;;3.03;;
70899;SDS011;67902;52.154;5.430;2023-04-01T06:24:04;9.13;;;3.08;;
70899;SDS011;67902;52.154;5.430;2023-04-01T06:26:51;10.25;;;3.30;;
70899;SDS011;67902;52.154;5.430;2023-04-01T06:35:15;12.65;;;3.85;;
70899;SDS011;67902;52.154;5.430;2023-04-01T06:37:58;8.75;;;3.08;;
70899;SDS011;67902;52.154;5.430;2023-04-01T06:43:18;10.55;;;2.88;;
70899;SDS011;67902;52.154;5.430;2023-04-01T06:45:56;10.38;;;3.20;;
70899;SDS011;67902;52.154;5.430;2023-04-01T06:48:30;9.25;;;2.90;;
70899;SDS011;67902;52.154;5.430;2023-04-01T06:51:44;8.55;;;2.50;;
70899;SDS011;67902;52.154;5.430;2023-04-01T06:54:31;5.80;;;1.98;;
70899;SDS011;67902;52.154;5.430;2023-04-01T06:57:14;6.13;;;1.50;;
70899;SDS011;67902;52.154;5.430;2023-04-01T06:59:45;6.00;;;1.52;;
70899;SDS011;67902;52.154;5.430;2023-04-01T07:02:18;5.63;;;1.48;;
70899;SDS011;67902;52.154;5.430;2023-04-01T07:04:52;5.10;;;1.40;;
70899;SDS011;67902;52.154;5.430;2023-04-01T07:07:33;6.18;;;1.67;;
70899;SDS011;67902;52.154;5.430;2023-04-01T07:10:02;5.93;;;1.90;;
70899;SDS011;67902;52.154;5.430;2023-04-01T07:12:46;6.65;;;1.98;;
70899;SDS011;67902;52.154;5.430;2023-04-01T07:15:17;6.07;;;2.00;;
70899;SDS011;67902;52.154;5.430;2023-04-01T07:17:51;6.30;;;1.95;;
70899;SDS011;67902;52.154;5.430;2023-04-01T07:20:25;6.88;;;2.22;;
70899;SDS011;67902;52.154;5.430;2023-04-01T07:23:00;6.68;;;2.17;;
70899;SDS011;67902;52.154;5.430;2023-04-01T07:25:31;9.18;;;2.72;;
70899;SDS011;67902;52.154;5.430;2023-04-01T07:28:11;6.68;;;2.58;;
70899;SDS011;67902;52.154;5.430;2023-04-01T07:30:48;7.97;;;2.85;;
70899;SDS011;67902;52.154;5.430;2023-04-01T07:33:55;7.68;;;2.85;;
70899;SDS011;67902;52.154;5.430;2023-04-01T07:44:34;8.68;;;3.33;;
70899;SDS011;67902;52.154;5.430;2023-04-01T07:50:06;10.88;;;3.78;;
70899;SDS011;67902;52.154;5.430;2023-04-01T08:00:47;8.73;;;3.55;;
70899;SDS011;67902;52.154;5.430;2023-04-01T08:03:29;11.63;;;3.92;;
70899;SDS011;67902;52.154;5.430;2023-04-01T08:06:03;9.70;;;4.10;;
70899;SDS011;67902;52.154;5.430;2023-04-01T08:19:36;9.13;;;3.97;;
70899;SDS011;67902;52.154;5.430;2023-04-01T08:22:29;10.35;;;3.85;;
70899;SDS011;67902;52.154;5.430;2023-04-01T08:25:02;9.40;;;3.97;;
70899;SDS011;67902;52.154;5.430;2023-04-01T08:27:37;11.57;;;4.50;;
70899;SDS011;67902;52.154;5.430;2023-04-01T08:30:24;11.77;;;3.88;;
70899;SDS011;67902;52.154;5.430;2023-04-01T08:32:54;9.68;;;3.63;;
70899;SDS011;67902;52.154;5.430;2023-04-01T08:35:31;10.88;;;3.92;;
70899;SDS011;67902;52.154;5.430;2023-04-01T08:38:11;11.57;;;3.97;;
70899;SDS011;67902;52.154;5.430;2023-04-01T08:40:55;14.35;;;3.97;;
70899;SDS011;67902;52.154;5.430;2023-04-01T08:49:26;11.80;;;4.43;;
70899;SDS011;67902;52.154;5.430;2023-04-01T09:00:31;12.75;;;4.65;;
70899;SDS011;67902;52.154;5.430;2023-04-01T09:03:16;11.25;;;4.78;;
70899;SDS011;67902;52.154;5.430;2023-04-01T09:06:04;11.15;;;4.38;;
70899;SDS011;67902;52.154;5.430;2023-04-01T09:09:12;12.38;;;4.45;;
70899;SDS011;67902;52.154;5.430;2023-04-01T09:28:13;8.88;;;3.72;;
70899;SDS011;67902;52.154;5.430;2023-04-01T09:30:51;11.07;;;4.53;;
70899;SDS011;67902;52.154;5.430;2023-04-01T09:33:41;10.15;;;4.10;;
70899;SDS011;67902;52.154;5.430;2023-04-01T09:36:33;11.25;;;4.40;;
70899;SDS011;67902;52.154;5.430;2023-04-01T09:42:26;10.40;;;3.92;;
70899;SDS011;67902;52.154;5.430;2023-04-01T09:45:07;9.63;;;4.03;;
70899;SDS011;67902;52.154;5.430;2023-04-01T09:54:23;10.32;;;4.20;;
70899;SDS011;67902;52.154;5.430;2023-04-01T10:06:44;11.45;;;4.80;;
70899;SDS011;67902;52.154;5.430;2023-04-01T10:14:37;10.35;;;4.40;;
70899;SDS011;67902;52.154;5.430;2023-04-01T10:17:15;10.95;;;4.20;;
70899;SDS011;67902;52.154;5.430;2023-04-01T10:22:50;8.30;;;4.00;;
70899;SDS011;67902;52.154;5.430;2023-04-01T10:36:59;10.57;;;4.43;;
70899;SDS011;67902;52.154;5.430;2023-04-01T10:48:47;10.27;;;4.15;;
70899;SDS011;67902;52.154;5.430;2023-04-01T10:54:40;9.90;;;3.92;;
70899;SDS011;67902;52.154;5.430;2023-04-01T11:00:18;7.45;;;2.53;;
70899;SDS011;67902;52.154;5.430;2023-04-01T11:18:11;5.75;;;2.10;;
70899;SDS011;67902;52.154;5.430;2023-04-01T11:29:37;4.10;;;1.27;;
70899;SDS011;67902;52.154;5.430;2023-04-01T11:38:09;3.38;;;1.13;;
70899;SDS011;67902;52.154;5.430;2023-04-01T11:44:03;3.90;;;1.17;;
70899;SDS011;67902;52.154;5.430;2023-04-01T11:49:57;4.55;;;1.30;;
70899;SDS011;67902;52.154;5.430;2023-04-01T12:01:13;4.70;;;1.67;;
70899;SDS011;67902;52.154;5.430;2023-04-01T12:06:54;6.68;;;1.90;;
70899;SDS011;67902;52.154;5.430;2023-04-01T12:12:18;6.80;;;2.60;;
70899;SDS011;67902;52.154;5.430;2023-04-01T12:29:12;12.75;;;4.93;;
70899;SDS011;67902;52.154;5.430;2023-04-01T12:37:45;14.13;;;4.80;;
70899;SDS011;67902;52.154;5.430;2023-04-01T12:43:18;12.35;;;5.38;;
70899;SDS011;67902;52.154;5.430;2023-04-01T12:45:44;13.85;;;5.78;;
70899;SDS011;67902;52.154;5.430;2023-04-01T12:51:18;14.57;;;5.35;;
70899;SDS011;67902;52.154;5.430;2023-04-01T12:54:08;13.07;;;6.28;;
70899;SDS011;67902;52.154;5.430;2023-04-01T13:02:24;17.02;;;6.18;;
70899;SDS011;67902;52.154;5.430;2023-04-01T13:05:15;13.40;;;5.65;;
70899;SDS011;67902;52.154;5.430;2023-04-01T13:27:34;9.00;;;3.63;;
70899;SDS011;67902;52.154;5.430;2023-04-01T13:30:24;8.82;;;3.55;;
70899;SDS011;67902;52.154;5.430;2023-04-01T13:33:02;9.82;;;4.28;;
70899;SDS011;67902;52.154;5.430;2023-04-01T13:36:01;8.18;;;3.47;;
70899;SDS011;67902;52.154;5.430;2023-04-01T13:44:46;8.00;;;2.95;;
70899;SDS011;67902;52.154;5.430;2023-04-01T13:52:40;8.35;;;2.88;;
70899;SDS011;67902;52.154;5.430;2023-04-01T14:06:44;9.35;;;3.08;;
70899;SDS011;67902;52.154;5.430;2023-04-01T14:09:45;8.75;;;3.53;;
70899;SDS011;67902;52.154;5.430;2023-04-01T14:15:33;8.65;;;4.03;;
70899;SDS011;67902;52.154;5.430;2023-04-01T14:21:33;9.45;;;4.07;;
70899;SDS011;67902;52.154;5.430;2023-04-01T14:29:37;7.13;;;2.80;;
70899;SDS011;67902;52.154;5.430;2023-04-01T14:35:11;8.13;;;3.25;;
70899;SDS011;67902;52.154;5.430;2023-04-01T14:37:55;8.23;;;3.25;;
70899;SDS011;67902;52.154;5.430;2023-04-01T14:43:20;9.52;;;3.20;;
70899;SDS011;67902;52.154;5.430;2023-04-01T14:51:47;8.23;;;3.85;;
70899;SDS011;67902;52.154;5.430;2023-04-01T14:54:18;7.50;;;3.40;;
70899;SDS011;67902;52.154;5.430;2023-04-01T14:56:51;7.05;;;3.00;;
70899;SDS011;67902;52.154;5.430;2023-04-01T14:59:38;8.77;;;3.75;;
70899;SDS011;67902;52.154;5.430;2023-04-01T15:02:17;8.00;;;3.38;;
70899;SDS011;67902;52.154;5.430;2023-04-01T15:04:54;9.00;;;3.45;;
70899;SDS011;67902;52.154;5.430;2023-04-01T15:07:41;7.53;;;2.95;;
70899;SDS011;67902;52.154;5.430;2023-04-01T15:13:15;8.13;;;3.50;;
70899;SDS011;67902;52.154;5.430;2023-04-01T15:16:20;8.48;;;3.20;;
70899;SDS011;67902;52.154;5.430;2023-04-01T15:21:37;8.35;;;3.17;;
70899;SDS011;67902;52.154;5.430;2023-04-01T15:24:36;6.50;;;2.80;;
70899;SDS011;67902;52.154;5.430;2023-04-01T15:32:25;7.05;;;2.70;;
70899;SDS011;67902;52.154;5.430;2023-04-01T15:34:57;6.40;;;2.70;;
70899;SDS011;67902;52.154;5.430;2023-04-01T15:40:31;6.72;;;2.80;;
70899;SDS011;67902;52.154;5.430;2023-04-01T15:51:02;6.90;;;2.50;;
70899;SDS011;67902;52.154;5.430;2023-04-01T15:53:50;5.25;;;2.05;;
70899;SDS011;67902;52.154;5.430;2023-04-01T16:02:42;5.72;;;2.45;;
70899;SDS011;67902;52.154;5.430;2023-04-01T16:10:56;6.85;;;2.53;;
70899;SDS011;67902;52.154;5.430;2023-04-01T16:21:33;8.63;;;2.58;;
70899;SDS011;67902;52.154;5.430;2023-04-01T16:24:15;6.68;;;2.88;;
70899;SDS011;67902;52.154;5.430;2023-04-01T16:27:02;6.45;;;2.42;;
70899;SDS011;67902;52.154;5.430;2023-04-01T16:32:14;6.80;;;3.17;;
70899;SDS011;67902;52.154;5.430;2023-04-01T16:34:56;7.60;;;3.00;;
70899;SDS011;67902;52.154;5.430;2023-04-01T16:40:44;8.10;;;3.35;;
70899;SDS011;67902;52.154;5.430;2023-04-01T16:43:20;7.53;;;3.22;;
70899;SDS011;67902;52.154;5.430;2023-04-01T16:45:55;7.47;;;3.35;;
70899;SDS011;67902;52.154;5.430;2023-04-01T16:48:58;7.68;;;3.30;;
70899;SDS011;67902;52.154;5.430;2023-04-01T16:51:42;9.82;;;4.47;;
70899;SDS011;67902;52.154;5.430;2023-04-01T16:54:26;11.27;;;5.03;;
70899;SDS011;67902;52.154;5.430;2023-04-01T16:59:36;11.48;;;5.72;;
70899;SDS011;67902;52.154;5.430;2023-04-01T17:10:06;10.32;;;5.25;;
70899;SDS011;67902;52.154;5.430;2023-04-01T17:15:40;12.15;;;5.38;;
70899;SDS011;67902;52.154;5.430;2023-04-01T17:24:18;8.07;;;3.25;;
70899;SDS011;67902;52.154;5.430;2023-04-01T17:27:12;7.38;;;3.20;;
70899;SDS011;67902;52.154;5.430;2023-04-01T17:32:34;6.65;;;2.47;;
70899;SDS011;67902;52.154;5.430;2023-04-01T17:35:32;5.82;;;2.50;;
70899;SDS011;67902;52.154;5.430;2023-04-01T17:40:44;7.72;;;2.65;;
70899;SDS011;67902;52.154;5.430;2023-04-01T17:43:26;6.85;;;2.78;;
70899;SDS011;67902;52.154;5.430;2023-04-01T17:54:58;11.25;;;4.18;;
70899;SDS011;67902;52.154;5.430;2023-04-01T18:00:33;6.97;;;3.05;;
70899;SDS011;67902;52.154;5.430;2023-04-01T18:03:41;8.73;;;3.47;;
70899;SDS011;67902;52.154;5.430;2023-04-01T18:15:12;8.57;;;3.10;;
70899;SDS011;67902;52.154;5.430;2023-04-01T18:21:10;12.48;;;3.92;;
70899;SDS011;67902;52.154;5.430;2023-04-01T18:29:40;7.82;;;3.92;;
70899;SDS011;67902;52.154;5.430;2023-04-01T18:34:53;8.65;;;3.97;;
70899;SDS011;67902;52.154;5.430;2023-04-01T18:40:00;8.52;;;3.90;;
70899;SDS011;67902;52.154;5.430;2023-04-01T18:45:26;8.43;;;3.88;;
70899;SDS011;67902;52.154;5.430;2023-04-01T18:53:48;7.90;;;3.55;;
70899;SDS011;67902;52.154;5.430;2023-04-01T18:56:37;8.82;;;3.90;;
70899;SDS011;67902;52.154;5.430;2023-04-01T18:59:17;7.57;;;3.47;;
70899;SDS011;67902;52.154;5.430;2023-04-01T19:04:41;7.70;;;3.65;;
70899;SDS011;67902;52.154;5.430;2023-04-01T19:21:23;9.90;;;5.05;;
70899;SDS011;67902;52.154;5.430;2023-04-01T19:24:12;9.77;;;5.00;;
70899;SDS011;67902;52.154;5.430;2023-04-01T19:27:08;12.05;;;6.32;;
70899;SDS011;67902;52.154;5.430;2023-04-01T19:29:47;8.25;;;4.15;;
70899;SDS011;67902;52.154;5.430;2023-04-01T19:35:38;10.00;;;4.45;;
70899;SDS011;67902;52.154;5.430;2023-04-01T19:38:14;11.43;;;5.18;;
70899;SDS011;67902;52.154;5.430;2023-04-01T19:43:42;8.88;;;4.43;;
70899;SDS011;67902;52.154;5.430;2023-04-01T19:46:27;9.40;;;4.60;;
70899;SDS011;67902;52.154;5.430;2023-04-01T19:51:51;9.25;;;4.70;;
70899;SDS011;67902;52.154;5.430;2023-04-01T19:54:39;9.35;;;4.63;;
70899;SDS011;67902;52.154;5.430;2023-04-01T19:57:17;11.25;;;4.72;;
70899;SDS011;67902;52.154;5.430;2023-04-01T20:00:06;10.43;;;4.72;;
70899;SDS011;67902;52.154;5.430;2023-04-01T20:05:53;10.40;;;5.43;;
70899;SDS011;67902;52.154;5.430;2023-04-01T20:08:31;15.32;;;5.97;;
70899;SDS011;67902;52.154;5.430;2023-04-01T20:16:47;14.40;;;5.93;;
70899;SDS011;67902;52.154;5.430;2023-04-01T20:19:25;12.05;;;6.30;;
70899;SDS011;67902;52.154;5.430;2023-04-01T20:24:56;12.27;;;6.15;;
70899;SDS011;67902;52.154;5.430;2023-04-01T20:27:30;11.63;;;5.80;;
70899;SDS011;67902;52.154;5.430;2023-04-01T20:35:35;10.85;;;5.53;;
70899;SDS011;67902;52.154;5.430;2023-04-01T20:46:37;10.85;;;5.28;;
70899;SDS011;67902;52.154;5.430;2023-04-01T20:52:15;10.70;;;5.13;;
70899;SDS011;67902;52.154;5.430;2023-04-01T20:57:32;12.63;;;5.63;;
70899;SDS011;67902;52.154;5.430;2023-04-01T21:00:19;11.43;;;5.15;;
70899;SDS011;67902;52.154;5.430;2023-04-01T21:11:09;11.38;;;5.32;;
70899;SDS011;67902;52.154;5.430;2023-04-01T21:14:04;12.98;;;5.03;;
70899;SDS011;67902;52.154;5.430;2023-04-01T21:16:55;11.38;;;5.20;;
70899;SDS011;67902;52.154;5.430;2023-04-01T21:20:05;10.60;;;4.80;;
70899;SDS011;67902;52.154;5.430;2023-04-01T21:36:32;12.65;;;5.53;;
70899;SDS011;67902;52.154;5.430;2023-04-01T22:04:51;12.55;;;5.38;;
70899;SDS011;67902;52.154;5.430;2023-04-01T22:07:38;13.18;;;5.43;;
70899;SDS011;67902;52.154;5.430;2023-04-01T22:10:24;12.63;;;5.20;;
70899;SDS011;67902;52.154;5.430;2023-04-01T22:13:12;10.70;;;4.57;;
70899;SDS011;67902;52.154;5.430;2023-04-01T22:18:21;12.57;;;5.85;;
70899;SDS011;67902;52.154;5.430;2023-04-01T22:21:20;12.60;;;5.45;;
70899;SDS011;67902;52.154;5.430;2023-04-01T22:24:04;13.27;;;6.43;;
70899;SDS011;67902;52.154;5.430;2023-04-01T22:26:44;9.93;;;4.90;;
70899;SDS011;67902;52.154;5.430;2023-04-01T22:29:20;11.15;;;5.05;;
70899;SDS011;67902;52.154;5.430;2023-04-01T22:32:08;12.05;;;5.28;;
70899;SDS011;67902;52.154;5.430;2023-04-01T22:38:03;17.00;;;6.22;;
70899;SDS011;67902;52.154;5.430;2023-04-01T22:40:35;14.30;;;5.88;;
70899;SDS011;67902;52.154;5.430;2023-04-01T22:48:35;14.80;;;6.53;;
70899;SDS011;67902;52.154;5.430;2023-04-01T22:56:40;12.32;;;5.22;;
70899;SDS011;67902;52.154;5.430;2023-04-01T22:59:19;12.50;;;6.13;;
70899;SDS011;67902;52.154;5.430;2023-04-01T23:01:53;14.68;;;6.07;;
70899;SDS011;67902;52.154;5.430;2023-04-01T23:04:28;15.05;;;6.10;;
70899;SDS011;67902;52.154;5.430;2023-04-01T23:06:59;17.05;;;6.57;;
70899;SDS011;67902;52.154;5.430;2023-04-01T23:09:30;13.35;;;6.38;;
70899;SDS011;67902;52.154;5.430;2023-04-01T23:12:07;16.75;;;7.32;;
70899;SDS011;67902;52.154;5.430;2023-04-01T23:14:47;15.38;;;7.38;;
70899;SDS011;67902;52.154;5.430;2023-04-01T23:17:23;16.05;;;7.10;;
70899;SDS011;67902;52.154;5.430;2023-04-01T23:28:55;13.98;;;6.38;;
70899;SDS011;67902;52.154;5.430;2023-04-01T23:31:35;15.05;;;7.28;;
70899;SDS011;67902;52.154;5.430;2023-04-01T23:36:45;18.15;;;7.82;;
70899;SDS011;67902;52.154;5.430;2023-04-01T23:41:50;16.67;;;6.78;;
70899;SDS011;67902;52.154;5.430;2023-04-01T23:44:19;19.40;;;8.18;;
70899;SDS011;67902;52.154;5.430;2023-04-01T23:46:47;16.02;;;6.82;;
70899;SDS011;67902;52.154;5.430;2023-04-01T23:49:19;16.50;;;7.00;;
70899;SDS011;67902;52.154;5.430;2023-04-01T23:51:51;17.75;;;7.25;;
70899;SDS011;67902;52.154;5.430;2023-04-01T23:54:29;23.80;;;7.18;;
70899;SDS011;67902;52.154;5.430;2023-04-01T23:56:58;18.08;;;7.07;;
70899;SDS011;67902;52.154;5.430;2023-04-01T23:59:29;17.48;;;7.82;;
